New London, NH (03257)

11:33 PM EST on January 19, 2017 (GMT -0500)
Messer Pond | | Change Station

Elev 1138 ft 43.40 °N, 72.00 °W | Updated 49 seconds ago

Mostly Cloudy
Mostly Cloudy
32.5 °F
Feels Like 32 °F
N
1.0
Wind Variable Wind from NW

Today
High -- | Low -- °F
--% Chance of Precip.
Yesterday
High -- | Low -- °F
Precip. -- in
Pressure 30.04 in
Visibility 10.0 miles
Clouds Overcast 2800 ft
Windchill 32 °F
Dew Point 29 °F
Humidity 88%
Rainfall 1.01 in
Snow Depth Not available.
7:15 AM 4:42 PM
Waning Gibbous, 48% visible
METAR KLEB 200353Z AUTO 02004KT 10SM OVC028 01/00 A3002 RMK AO2 SLP173 T00110000
Pressure 30.04 in
Visibility 10.0 miles
Clouds Overcast 2800 ft
Windchill 32 °F
Dew Point 29 °F
Humidity 88%
Rainfall 1.01 in
Snow Depth Not available.
7:15 AM 4:42 PM
Waning Gibbous, 48% visible
METAR KLEB 200353Z AUTO 02004KT 10SM OVC028 01/00 A3002 RMK AO2 SLP173 T00110000

Get Your Daily Forecast Email!

Thanks for signing up!

Be on the lookout for a verification email in your inbox.

You'll start receiving the daily forecast at 8 AM.

×

10-Day Weather Forecast

Almanac

Astronomy

Jan. 19, 2017 Rise Set
Actual Time
Civil Twilight
Nautical Twilight
Astronomical Twilight
Moon
Length of Visible Light
Length of Day
Tomorrow will be .
, % of the Moon is Illuminated

Today's Extremes

State Highs State Lows

Community

WunderPhotos

Upload Photos

1,962,540 photos uploaded!

WunderBlog® & News

Nearby

Air Quality

  Air Quality AQ Index Pollutant
Not available.

Snow Depth

Station Depth Elevation

Earthquake Activity

City Distance Mag. Time & Date
Minimum magnitude displayed is 2.5.

Coastal Water Temperatures

Place Temperature

Stations

Nearby Weather Stations

Station Location Temp. Windchill Dew Point Humidity Wind Precip. Elev Updated Type
                   

Watches & Warnings

Small Craft for Hazardous Seas Advisory
Issued: 2:30 PM EST Jan. 19, 2017 – National Weather Service

... Small Craft Advisory for hazardous seas now in effect until
7 am EST Friday...

* seas... 4 to 6 feet.

Precautionary/preparedness actions...

A Small Craft Advisory for hazardous seas means that waves are
expected to be hazardous to small craft. Mariners should avoid
shoaling areas. Long period swell can sharpen into large breaking
waves in shoaling areas. It is not unusual for waves to break
much farther from shoaling areas than is normally experienced.
Remember... breaking waves can easily capsize even larger vessels.